sensor_id;sensor_type;location;lat;lon;timestamp;P1;durP1;ratioP1;P2;durP2;ratioP2
12334;SDS011;6233;51.560;9.986;2022-12-29T00:01:29;4.13;;;2.20;;
12334;SDS011;6233;51.560;9.986;2022-12-29T00:04:32;2.50;;;2.30;;
12334;SDS011;6233;51.560;9.986;2022-12-29T00:07:33;2.57;;;2.13;;
12334;SDS011;6233;51.560;9.986;2022-12-29T00:10:35;3.13;;;2.20;;
12334;SDS011;6233;51.560;9.986;2022-12-29T00:13:37;2.90;;;2.70;;
12334;SDS011;6233;51.560;9.986;2022-12-29T00:16:58;2.93;;;2.63;;
12334;SDS011;6233;51.560;9.986;2022-12-29T00:20:00;2.83;;;2.63;;
12334;SDS011;6233;51.560;9.986;2022-12-29T00:23:20;2.43;;;1.93;;
12334;SDS011;6233;51.560;9.986;2022-12-29T00:26:41;2.83;;;2.20;;
12334;SDS011;6233;51.560;9.986;2022-12-29T00:30:01;4.27;;;2.13;;
12334;SDS011;6233;51.560;9.986;2022-12-29T00:33:25;2.80;;;2.60;;
12334;SDS011;6233;51.560;9.986;2022-12-29T00:36:48;3.10;;;2.50;;
12334;SDS011;6233;51.560;9.986;2022-12-29T00:39:49;2.63;;;2.43;;
12334;SDS011;6233;51.560;9.986;2022-12-29T00:43:10;2.63;;;2.43;;
12334;SDS011;6233;51.560;9.986;2022-12-29T00:46:30;5.07;;;2.50;;
12334;SDS011;6233;51.560;9.986;2022-12-29T00:49:36;3.93;;;2.77;;
12334;SDS011;6233;51.560;9.986;2022-12-29T00:52:37;3.30;;;2.63;;
12334;SDS011;6233;51.560;9.986;2022-12-29T00:55:39;2.67;;;2.47;;
12334;SDS011;6233;51.560;9.986;2022-12-29T00:58:41;2.53;;;2.30;;
12334;SDS011;6233;51.560;9.986;2022-12-29T01:01:43;3.67;;;2.90;;
12334;SDS011;6233;51.560;9.986;2022-12-29T01:04:45;2.97;;;2.50;;
12334;SDS011;6233;51.560;9.986;2022-12-29T01:07:47;2.70;;;2.50;;
12334;SDS011;6233;51.560;9.986;2022-12-29T01:10:58;4.07;;;2.87;;
12334;SDS011;6233;51.560;9.986;2022-12-29T01:14:07;3.17;;;2.87;;
12334;SDS011;6233;51.560;9.986;2022-12-29T01:17:09;2.63;;;2.43;;
12334;SDS011;6233;51.560;9.986;2022-12-29T01:20:11;2.80;;;2.50;;
12334;SDS011;6233;51.560;9.986;2022-12-29T01:23:14;3.50;;;2.50;;
12334;SDS011;6233;51.560;9.986;2022-12-29T01:26:17;3.03;;;2.80;;
12334;SDS011;6233;51.560;9.986;2022-12-29T01:29:19;2.50;;;2.30;;
12334;SDS011;6233;51.560;9.986;2022-12-29T01:32:21;2.70;;;2.50;;
12334;SDS011;6233;51.560;9.986;2022-12-29T01:35:23;3.13;;;2.87;;
12334;SDS011;6233;51.560;9.986;2022-12-29T01:38:25;2.63;;;2.43;;
12334;SDS011;6233;51.560;9.986;2022-12-29T01:41:27;2.70;;;2.40;;
12334;SDS011;6233;51.560;9.986;2022-12-29T01:44:41;4.17;;;2.70;;
12334;SDS011;6233;51.560;9.986;2022-12-29T01:47:59;2.80;;;2.50;;
12334;SDS011;6233;51.560;9.986;2022-12-29T01:51:04;2.60;;;2.40;;
12334;SDS011;6233;51.560;9.986;2022-12-29T01:54:09;4.30;;;2.77;;
12334;SDS011;6233;51.560;9.986;2022-12-29T01:57:16;2.90;;;2.70;;
12334;SDS011;6233;51.560;9.986;2022-12-29T02:00:22;3.47;;;2.30;;
12334;SDS011;6233;51.560;9.986;2022-12-29T02:03:24;3.70;;;3.30;;
12334;SDS011;6233;51.560;9.986;2022-12-29T02:06:38;2.87;;;2.63;;
12334;SDS011;6233;51.560;9.986;2022-12-29T02:09:47;2.70;;;2.50;;
12334;SDS011;6233;51.560;9.986;2022-12-29T02:12:50;3.77;;;2.43;;
12334;SDS011;6233;51.560;9.986;2022-12-29T02:22:32;2.53;;;2.20;;
12334;SDS011;6233;51.560;9.986;2022-12-29T02:32:37;2.70;;;2.40;;
12334;SDS011;6233;51.560;9.986;2022-12-29T02:42:23;3.63;;;2.30;;
12334;SDS011;6233;51.560;9.986;2022-12-29T02:45:31;2.40;;;2.20;;
12334;SDS011;6233;51.560;9.986;2022-12-29T02:49:02;2.40;;;2.20;;
12334;SDS011;6233;51.560;9.986;2022-12-29T02:55:17;2.70;;;2.10;;
12334;SDS011;6233;51.560;9.986;2022-12-29T02:58:21;2.13;;;1.93;;
12334;SDS011;6233;51.560;9.986;2022-12-29T03:08:06;2.37;;;2.17;;
12334;SDS011;6233;51.560;9.986;2022-12-29T03:11:18;3.17;;;2.13;;
12334;SDS011;6233;51.560;9.986;2022-12-29T03:14:47;2.50;;;2.30;;
12334;SDS011;6233;51.560;9.986;2022-12-29T03:18:21;2.50;;;2.07;;
12334;SDS011;6233;51.560;9.986;2022-12-29T03:21:35;2.00;;;1.90;;
12334;SDS011;6233;51.560;9.986;2022-12-29T03:28:18;1.80;;;1.70;;
12334;SDS011;6233;51.560;9.986;2022-12-29T03:31:28;2.07;;;1.70;;
12334;SDS011;6233;51.560;9.986;2022-12-29T03:34:30;2.90;;;2.03;;
12334;SDS011;6233;51.560;9.986;2022-12-29T03:37:45;1.80;;;1.70;;
12334;SDS011;6233;51.560;9.986;2022-12-29T03:40:58;2.53;;;2.00;;
12334;SDS011;6233;51.560;9.986;2022-12-29T03:44:01;2.33;;;1.50;;
12334;SDS011;6233;51.560;9.986;2022-12-29T03:47:03;3.63;;;2.47;;
12334;SDS011;6233;51.560;9.986;2022-12-29T03:50:07;2.83;;;2.00;;
12334;SDS011;6233;51.560;9.986;2022-12-29T03:53:09;1.80;;;1.70;;
12334;SDS011;6233;51.560;9.986;2022-12-29T03:56:11;1.67;;;1.57;;
12334;SDS011;6233;51.560;9.986;2022-12-29T03:59:13;2.13;;;1.93;;
12334;SDS011;6233;51.560;9.986;2022-12-29T04:02:14;1.57;;;1.47;;
12334;SDS011;6233;51.560;9.986;2022-12-29T04:05:18;2.40;;;2.20;;
12334;SDS011;6233;51.560;9.986;2022-12-29T04:08:20;1.80;;;1.70;;
12334;SDS011;6233;51.560;9.986;2022-12-29T04:11:22;1.77;;;1.67;;
12334;SDS011;6233;51.560;9.986;2022-12-29T04:14:31;1.80;;;1.47;;
12334;SDS011;6233;51.560;9.986;2022-12-29T04:17:33;1.53;;;1.43;;
12334;SDS011;6233;51.560;9.986;2022-12-29T04:20:34;1.63;;;1.50;;
12334;SDS011;6233;51.560;9.986;2022-12-29T04:23:54;1.67;;;1.57;;
12334;SDS011;6233;51.560;9.986;2022-12-29T04:26:56;1.57;;;1.43;;
12334;SDS011;6233;51.560;9.986;2022-12-29T04:29:58;2.20;;;1.53;;
12334;SDS011;6233;51.560;9.986;2022-12-29T04:33:00;1.60;;;1.50;;
12334;SDS011;6233;51.560;9.986;2022-12-29T04:36:01;1.60;;;1.50;;
12334;SDS011;6233;51.560;9.986;2022-12-29T04:39:03;1.53;;;1.43;;
12334;SDS011;6233;51.560;9.986;2022-12-29T04:42:06;2.50;;;1.70;;
12334;SDS011;6233;51.560;9.986;2022-12-29T04:45:08;1.83;;;1.30;;
12334;SDS011;6233;51.560;9.986;2022-12-29T04:48:10;1.40;;;1.30;;
12334;SDS011;6233;51.560;9.986;2022-12-29T04:51:12;3.13;;;2.20;;
12334;SDS011;6233;51.560;9.986;2022-12-29T04:54:14;1.70;;;1.30;;
12334;SDS011;6233;51.560;9.986;2022-12-29T04:57:16;1.60;;;1.50;;
12334;SDS011;6233;51.560;9.986;2022-12-29T05:00:18;1.70;;;1.60;;
12334;SDS011;6233;51.560;9.986;2022-12-29T05:03:20;1.57;;;1.47;;
12334;SDS011;6233;51.560;9.986;2022-12-29T05:06:22;1.40;;;1.30;;
12334;SDS011;6233;51.560;9.986;2022-12-29T05:09:24;1.53;;;1.43;;
12334;SDS011;6233;51.560;9.986;2022-12-29T05:12:28;1.70;;;1.50;;
12334;SDS011;6233;51.560;9.986;2022-12-29T05:15:31;2.27;;;1.40;;
12334;SDS011;6233;51.560;9.986;2022-12-29T05:18:33;2.03;;;1.83;;
12334;SDS011;6233;51.560;9.986;2022-12-29T05:21:35;1.57;;;1.47;;
12334;SDS011;6233;51.560;9.986;2022-12-29T05:24:37;1.57;;;1.47;;
12334;SDS011;6233;51.560;9.986;2022-12-29T05:27:38;1.97;;;1.50;;
12334;SDS011;6233;51.560;9.986;2022-12-29T05:30:40;2.50;;;1.40;;
12334;SDS011;6233;51.560;9.986;2022-12-29T05:33:42;1.60;;;1.13;;
12334;SDS011;6233;51.560;9.986;2022-12-29T05:36:44;1.67;;;1.30;;
12334;SDS011;6233;51.560;9.986;2022-12-29T05:39:45;1.10;;;1.00;;
12334;SDS011;6233;51.560;9.986;2022-12-29T05:42:47;2.27;;;1.20;;
12334;SDS011;6233;51.560;9.986;2022-12-29T05:45:49;1.23;;;1.20;;
12334;SDS011;6233;51.560;9.986;2022-12-29T05:48:51;1.30;;;1.20;;
12334;SDS011;6233;51.560;9.986;2022-12-29T05:51:54;1.23;;;1.13;;
12334;SDS011;6233;51.560;9.986;2022-12-29T05:54:56;1.40;;;1.30;;
12334;SDS011;6233;51.560;9.986;2022-12-29T05:57:58;1.00;;;1.00;;
12334;SDS011;6233;51.560;9.986;2022-12-29T06:00:59;3.03;;;2.20;;
12334;SDS011;6233;51.560;9.986;2022-12-29T06:04:01;1.73;;;1.63;;
12334;SDS011;6233;51.560;9.986;2022-12-29T06:07:03;1.50;;;1.40;;
12334;SDS011;6233;51.560;9.986;2022-12-29T06:10:05;1.30;;;1.20;;
12334;SDS011;6233;51.560;9.986;2022-12-29T06:13:08;1.20;;;1.10;;
12334;SDS011;6233;51.560;9.986;2022-12-29T06:16:10;1.00;;;1.00;;
12334;SDS011;6233;51.560;9.986;2022-12-29T06:19:14;2.23;;;1.37;;
12334;SDS011;6233;51.560;9.986;2022-12-29T06:22:18;1.83;;;1.73;;
12334;SDS011;6233;51.560;9.986;2022-12-29T06:25:20;1.53;;;1.40;;
12334;SDS011;6233;51.560;9.986;2022-12-29T06:28:21;1.27;;;1.17;;
12334;SDS011;6233;51.560;9.986;2022-12-29T06:31:24;1.17;;;1.07;;
12334;SDS011;6233;51.560;9.986;2022-12-29T06:34:25;2.67;;;2.47;;
12334;SDS011;6233;51.560;9.986;2022-12-29T06:37:27;1.00;;;1.00;;
12334;SDS011;6233;51.560;9.986;2022-12-29T06:40:29;1.20;;;1.10;;
12334;SDS011;6233;51.560;9.986;2022-12-29T06:43:31;1.20;;;1.10;;
12334;SDS011;6233;51.560;9.986;2022-12-29T06:46:33;1.20;;;1.10;;
12334;SDS011;6233;51.560;9.986;2022-12-29T06:49:38;0.90;;;0.90;;
12334;SDS011;6233;51.560;9.986;2022-12-29T06:52:42;3.47;;;1.40;;
12334;SDS011;6233;51.560;9.986;2022-12-29T06:55:44;2.30;;;1.50;;
12334;SDS011;6233;51.560;9.986;2022-12-29T06:58:46;1.40;;;1.30;;
12334;SDS011;6233;51.560;9.986;2022-12-29T07:01:50;1.10;;;1.10;;
12334;SDS011;6233;51.560;9.986;2022-12-29T07:04:52;1.67;;;1.40;;
12334;SDS011;6233;51.560;9.986;2022-12-29T07:07:58;1.60;;;1.20;;
12334;SDS011;6233;51.560;9.986;2022-12-29T07:11:05;1.47;;;1.37;;
12334;SDS011;6233;51.560;9.986;2022-12-29T07:14:07;1.10;;;1.10;;
12334;SDS011;6233;51.560;9.986;2022-12-29T07:17:09;1.97;;;1.33;;
12334;SDS011;6233;51.560;9.986;2022-12-29T07:20:11;1.20;;;1.10;;
12334;SDS011;6233;51.560;9.986;2022-12-29T07:23:13;1.40;;;1.30;;
12334;SDS011;6233;51.560;9.986;2022-12-29T07:26:15;1.37;;;1.27;;
12334;SDS011;6233;51.560;9.986;2022-12-29T07:29:19;1.47;;;1.23;;
12334;SDS011;6233;51.560;9.986;2022-12-29T07:32:20;1.53;;;1.40;;
12334;SDS011;6233;51.560;9.986;2022-12-29T07:35:22;1.67;;;1.47;;
12334;SDS011;6233;51.560;9.986;2022-12-29T07:38:24;1.87;;;1.50;;
12334;SDS011;6233;51.560;9.986;2022-12-29T07:41:26;1.70;;;1.60;;
12334;SDS011;6233;51.560;9.986;2022-12-29T07:44:28;2.10;;;1.40;;
12334;SDS011;6233;51.560;9.986;2022-12-29T07:47:29;1.70;;;1.60;;
12334;SDS011;6233;51.560;9.986;2022-12-29T07:50:34;2.60;;;1.57;;
12334;SDS011;6233;51.560;9.986;2022-12-29T07:53:37;1.63;;;1.53;;
12334;SDS011;6233;51.560;9.986;2022-12-29T07:56:39;1.50;;;1.40;;
12334;SDS011;6233;51.560;9.986;2022-12-29T07:59:44;1.70;;;1.60;;
12334;SDS011;6233;51.560;9.986;2022-12-29T08:02:46;1.77;;;1.60;;
12334;SDS011;6233;51.560;9.986;2022-12-29T08:05:48;2.03;;;1.60;;
12334;SDS011;6233;51.560;9.986;2022-12-29T08:08:50;3.17;;;2.00;;
12334;SDS011;6233;51.560;9.986;2022-12-29T08:11:53;2.53;;;1.77;;
12334;SDS011;6233;51.560;9.986;2022-12-29T08:14:55;1.70;;;1.60;;
12334;SDS011;6233;51.560;9.986;2022-12-29T08:17:57;2.00;;;1.77;;
12334;SDS011;6233;51.560;9.986;2022-12-29T08:21:02;1.70;;;1.60;;
12334;SDS011;6233;51.560;9.986;2022-12-29T08:24:05;4.23;;;1.90;;
12334;SDS011;6233;51.560;9.986;2022-12-29T08:27:07;2.00;;;1.80;;
12334;SDS011;6233;51.560;9.986;2022-12-29T08:30:19;2.00;;;1.80;;
12334;SDS011;6233;51.560;9.986;2022-12-29T08:33:21;2.30;;;1.80;;
12334;SDS011;6233;51.560;9.986;2022-12-29T08:36:24;1.80;;;1.70;;
12334;SDS011;6233;51.560;9.986;2022-12-29T08:39:26;2.30;;;1.90;;
12334;SDS011;6233;51.560;9.986;2022-12-29T08:42:29;2.23;;;1.90;;
12334;SDS011;6233;51.560;9.986;2022-12-29T08:45:32;2.20;;;2.00;;
12334;SDS011;6233;51.560;9.986;2022-12-29T08:48:34;3.07;;;2.20;;
12334;SDS011;6233;51.560;9.986;2022-12-29T08:51:35;2.53;;;2.33;;
12334;SDS011;6233;51.560;9.986;2022-12-29T08:54:37;3.07;;;2.77;;
12334;SDS011;6233;51.560;9.986;2022-12-29T08:57:39;5.53;;;3.17;;
12334;SDS011;6233;51.560;9.986;2022-12-29T09:00:41;2.83;;;2.60;;
12334;SDS011;6233;51.560;9.986;2022-12-29T09:03:46;2.90;;;2.70;;
12334;SDS011;6233;51.560;9.986;2022-12-29T09:07:08;3.33;;;2.97;;
12334;SDS011;6233;51.560;9.986;2022-12-29T09:10:10;2.43;;;2.23;;
12334;SDS011;6233;51.560;9.986;2022-12-29T09:13:12;1.40;;;1.30;;
12334;SDS011;6233;51.560;9.986;2022-12-29T09:16:15;1.87;;;1.30;;
12334;SDS011;6233;51.560;9.986;2022-12-29T09:19:18;1.03;;;0.97;;
12334;SDS011;6233;51.560;9.986;2022-12-29T09:22:19;1.97;;;1.50;;
12334;SDS011;6233;51.560;9.986;2022-12-29T09:25:23;1.90;;;1.10;;
12334;SDS011;6233;51.560;9.986;2022-12-29T09:28:26;0.77;;;0.77;;
12334;SDS011;6233;51.560;9.986;2022-12-29T09:31:30;0.80;;;0.63;;
12334;SDS011;6233;51.560;9.986;2022-12-29T09:34:34;0.70;;;0.70;;
12334;SDS011;6233;51.560;9.986;2022-12-29T09:37:36;0.70;;;0.70;;
12334;SDS011;6233;51.560;9.986;2022-12-29T09:40:38;1.27;;;0.80;;
12334;SDS011;6233;51.560;9.986;2022-12-29T09:47:00;1.07;;;0.70;;
12334;SDS011;6233;51.560;9.986;2022-12-29T09:56:24;1.20;;;0.90;;
12334;SDS011;6233;51.560;9.986;2022-12-29T09:59:35;1.10;;;1.00;;
12334;SDS011;6233;51.560;9.986;2022-12-29T10:02:44;2.17;;;1.00;;
12334;SDS011;6233;51.560;9.986;2022-12-29T10:09:10;1.13;;;1.03;;
12334;SDS011;6233;51.560;9.986;2022-12-29T10:15:54;2.10;;;1.33;;
12334;SDS011;6233;51.560;9.986;2022-12-29T10:19:21;2.00;;;1.00;;
12334;SDS011;6233;51.560;9.986;2022-12-29T10:23:08;1.80;;;1.37;;
12334;SDS011;6233;51.560;9.986;2022-12-29T10:26:24;2.30;;;1.20;;
12334;SDS011;6233;51.560;9.986;2022-12-29T10:29:33;1.53;;;1.20;;
12334;SDS011;6233;51.560;9.986;2022-12-29T10:35:51;1.47;;;1.37;;
12334;SDS011;6233;51.560;9.986;2022-12-29T10:42:19;1.57;;;1.17;;
12334;SDS011;6233;51.560;9.986;2022-12-29T10:45:30;1.53;;;1.20;;
12334;SDS011;6233;51.560;9.986;2022-12-29T10:48:34;2.50;;;1.27;;
12334;SDS011;6233;51.560;9.986;2022-12-29T10:51:38;1.20;;;1.10;;
12334;SDS011;6233;51.560;9.986;2022-12-29T10:55:32;1.30;;;1.20;;
12334;SDS011;6233;51.560;9.986;2022-12-29T10:58:16;1.93;;;1.20;;
12334;SDS011;6233;51.560;9.986;2022-12-29T11:01:20;0.90;;;0.90;;
12334;SDS011;6233;51.560;9.986;2022-12-29T11:11:33;1.20;;;0.90;;
12334;SDS011;6233;51.560;9.986;2022-12-29T11:14:37;2.23;;;1.20;;
12334;SDS011;6233;51.560;9.986;2022-12-29T11:20:46;2.20;;;1.37;;
12334;SDS011;6233;51.560;9.986;2022-12-29T11:24:00;1.43;;;1.30;;
12334;SDS011;6233;51.560;9.986;2022-12-29T11:27:17;2.73;;;1.27;;
12334;SDS011;6233;51.560;9.986;2022-12-29T11:30:25;2.33;;;1.30;;
12334;SDS011;6233;51.560;9.986;2022-12-29T11:33:32;1.10;;;1.00;;
12334;SDS011;6233;51.560;9.986;2022-12-29T11:36:36;1.30;;;1.20;;
12334;SDS011;6233;51.560;9.986;2022-12-29T11:39:41;2.30;;;1.10;;
12334;SDS011;6233;51.560;9.986;2022-12-29T11:43:02;1.20;;;1.10;;
12334;SDS011;6233;51.560;9.986;2022-12-29T11:46:06;1.40;;;1.00;;
12334;SDS011;6233;51.560;9.986;2022-12-29T11:56:39;1.23;;;1.07;;
12334;SDS011;6233;51.560;9.986;2022-12-29T11:59:44;1.83;;;1.03;;
12334;SDS011;6233;51.560;9.986;2022-12-29T12:06:19;1.20;;;1.10;;
12334;SDS011;6233;51.560;9.986;2022-12-29T12:09:27;1.27;;;1.10;;
12334;SDS011;6233;51.560;9.986;2022-12-29T12:17:02;1.00;;;0.90;;
12334;SDS011;6233;51.560;9.986;2022-12-29T12:26:43;2.33;;;1.20;;
12334;SDS011;6233;51.560;9.986;2022-12-29T12:30:04;1.80;;;1.20;;
12334;SDS011;6233;51.560;9.986;2022-12-29T12:36:43;1.40;;;1.00;;
12334;SDS011;6233;51.560;9.986;2022-12-29T12:44:01;2.63;;;1.27;;
12334;SDS011;6233;51.560;9.986;2022-12-29T12:47:39;1.60;;;1.00;;
12334;SDS011;6233;51.560;9.986;2022-12-29T12:54:03;1.10;;;0.97;;
12334;SDS011;6233;51.560;9.986;2022-12-29T13:00:24;2.33;;;0.97;;
12334;SDS011;6233;51.560;9.986;2022-12-29T13:17:52;2.77;;;1.70;;
12334;SDS011;6233;51.560;9.986;2022-12-29T13:27:37;1.63;;;1.17;;
12334;SDS011;6233;51.560;9.986;2022-12-29T13:30:57;2.50;;;1.30;;
12334;SDS011;6233;51.560;9.986;2022-12-29T13:34:12;2.93;;;0.93;;
12334;SDS011;6233;51.560;9.986;2022-12-29T13:37:29;2.50;;;1.17;;
12334;SDS011;6233;51.560;9.986;2022-12-29T13:40:34;1.93;;;1.20;;
12334;SDS011;6233;51.560;9.986;2022-12-29T13:43:41;3.73;;;1.30;;
12334;SDS011;6233;51.560;9.986;2022-12-29T13:46:45;2.47;;;1.63;;
12334;SDS011;6233;51.560;9.986;2022-12-29T13:49:48;3.33;;;1.90;;
12334;SDS011;6233;51.560;9.986;2022-12-29T13:59:17;2.13;;;1.20;;
12334;SDS011;6233;51.560;9.986;2022-12-29T14:05:47;1.90;;;1.20;;
12334;SDS011;6233;51.560;9.986;2022-12-29T14:09:28;2.57;;;1.13;;
12334;SDS011;6233;51.560;9.986;2022-12-29T14:13:28;1.47;;;1.37;;
12334;SDS011;6233;51.560;9.986;2022-12-29T14:16:25;3.17;;;1.40;;
12334;SDS011;6233;51.560;9.986;2022-12-29T14:19:38;5.17;;;1.30;;
12334;SDS011;6233;51.560;9.986;2022-12-29T14:22:58;3.43;;;1.47;;
12334;SDS011;6233;51.560;9.986;2022-12-29T14:33:00;1.47;;;1.20;;
12334;SDS011;6233;51.560;9.986;2022-12-29T14:36:19;2.43;;;1.43;;
12334;SDS011;6233;51.560;9.986;2022-12-29T14:39:43;1.30;;;1.20;;
12334;SDS011;6233;51.560;9.986;2022-12-29T14:42:46;4.40;;;1.77;;
12334;SDS011;6233;51.560;9.986;2022-12-29T14:45:56;1.93;;;1.73;;
12334;SDS011;6233;51.560;9.986;2022-12-29T14:49:01;4.00;;;1.27;;
12334;SDS011;6233;51.560;9.986;2022-12-29T14:55:46;3.40;;;1.57;;
12334;SDS011;6233;51.560;9.986;2022-12-29T14:58:59;2.53;;;1.10;;
12334;SDS011;6233;51.560;9.986;2022-12-29T15:02:04;1.23;;;1.03;;
12334;SDS011;6233;51.560;9.986;2022-12-29T15:05:28;1.30;;;1.03;;
12334;SDS011;6233;51.560;9.986;2022-12-29T15:08:39;1.60;;;1.50;;
12334;SDS011;6233;51.560;9.986;2022-12-29T15:11:56;5.57;;;1.63;;
12334;SDS011;6233;51.560;9.986;2022-12-29T15:15:10;3.33;;;1.53;;
12334;SDS011;6233;51.560;9.986;2022-12-29T15:18:21;1.40;;;1.00;;
12334;SDS011;6233;51.560;9.986;2022-12-29T15:21:29;1.73;;;1.27;;
12334;SDS011;6233;51.560;9.986;2022-12-29T15:24:33;3.40;;;1.30;;
12334;SDS011;6233;51.560;9.986;2022-12-29T15:27:47;1.70;;;1.30;;
12334;SDS011;6233;51.560;9.986;2022-12-29T15:34:44;1.83;;;1.50;;
12334;SDS011;6233;51.560;9.986;2022-12-29T15:38:12;6.47;;;2.63;;
12334;SDS011;6233;51.560;9.986;2022-12-29T15:41:36;4.17;;;2.17;;
12334;SDS011;6233;51.560;9.986;2022-12-29T15:45:12;7.33;;;1.77;;
12334;SDS011;6233;51.560;9.986;2022-12-29T15:48:19;2.20;;;1.30;;
12334;SDS011;6233;51.560;9.986;2022-12-29T15:51:31;5.33;;;2.00;;
12334;SDS011;6233;51.560;9.986;2022-12-29T16:03:21;3.13;;;1.70;;
12334;SDS011;6233;51.560;9.986;2022-12-29T16:10:02;4.00;;;1.83;;
12334;SDS011;6233;51.560;9.986;2022-12-29T16:13:10;5.20;;;2.20;;
12334;SDS011;6233;51.560;9.986;2022-12-29T16:16:26;4.50;;;2.60;;
12334;SDS011;6233;51.560;9.986;2022-12-29T16:19:41;3.13;;;1.77;;
12334;SDS011;6233;51.560;9.986;2022-12-29T16:23:15;3.37;;;1.93;;
12334;SDS011;6233;51.560;9.986;2022-12-29T16:26:25;4.03;;;1.90;;
12334;SDS011;6233;51.560;9.986;2022-12-29T16:29:31;3.37;;;2.10;;
12334;SDS011;6233;51.560;9.986;2022-12-29T16:32:34;6.30;;;3.03;;
12334;SDS011;6233;51.560;9.986;2022-12-29T16:35:45;2.73;;;2.20;;
12334;SDS011;6233;51.560;9.986;2022-12-29T16:38:47;4.80;;;2.20;;
12334;SDS011;6233;51.560;9.986;2022-12-29T16:41:50;2.40;;;1.70;;
12334;SDS011;6233;51.560;9.986;2022-12-29T16:44:52;4.97;;;1.90;;
12334;SDS011;6233;51.560;9.986;2022-12-29T16:48:21;3.97;;;1.87;;
12334;SDS011;6233;51.560;9.986;2022-12-29T16:54:05;5.17;;;1.83;;
12334;SDS011;6233;51.560;9.986;2022-12-29T16:57:08;3.20;;;1.70;;
12334;SDS011;6233;51.560;9.986;2022-12-29T17:01:35;3.33;;;1.67;;
12334;SDS011;6233;51.560;9.986;2022-12-29T17:04:38;3.50;;;1.67;;
12334;SDS011;6233;51.560;9.986;2022-12-29T17:07:56;2.63;;;1.60;;
12334;SDS011;6233;51.560;9.986;2022-12-29T17:11:02;4.07;;;1.70;;
12334;SDS011;6233;51.560;9.986;2022-12-29T17:14:43;5.13;;;2.60;;
12334;SDS011;6233;51.560;9.986;2022-12-29T17:17:53;3.10;;;2.03;;
12334;SDS011;6233;51.560;9.986;2022-12-29T17:20:56;2.47;;;1.63;;
12334;SDS011;6233;51.560;9.986;2022-12-29T17:24:01;4.03;;;1.53;;
12334;SDS011;6233;51.560;9.986;2022-12-29T17:27:05;3.33;;;1.30;;
12334;SDS011;6233;51.560;9.986;2022-12-29T17:30:11;2.67;;;1.50;;
12334;SDS011;6233;51.560;9.986;2022-12-29T17:33:14;3.47;;;1.63;;
12334;SDS011;6233;51.560;9.986;2022-12-29T17:36:18;3.70;;;1.40;;
12334;SDS011;6233;51.560;9.986;2022-12-29T17:39:20;2.87;;;1.40;;
12334;SDS011;6233;51.560;9.986;2022-12-29T17:42:22;3.53;;;1.27;;
12334;SDS011;6233;51.560;9.986;2022-12-29T17:45:27;4.80;;;1.93;;
12334;SDS011;6233;51.560;9.986;2022-12-29T17:48:30;3.10;;;1.30;;
12334;SDS011;6233;51.560;9.986;2022-12-29T17:51:32;2.40;;;1.60;;
12334;SDS011;6233;51.560;9.986;2022-12-29T17:54:33;4.67;;;1.40;;
12334;SDS011;6233;51.560;9.986;2022-12-29T17:57:35;2.93;;;1.50;;
12334;SDS011;6233;51.560;9.986;2022-12-29T18:00:37;2.67;;;1.70;;
12334;SDS011;6233;51.560;9.986;2022-12-29T18:03:39;2.17;;;1.30;;
12334;SDS011;6233;51.560;9.986;2022-12-29T18:06:41;3.23;;;1.40;;
12334;SDS011;6233;51.560;9.986;2022-12-29T18:09:44;4.50;;;2.73;;
12334;SDS011;6233;51.560;9.986;2022-12-29T18:12:46;5.23;;;1.63;;
12334;SDS011;6233;51.560;9.986;2022-12-29T18:15:50;8.47;;;4.03;;
12334;SDS011;6233;51.560;9.986;2022-12-29T18:18:53;3.57;;;1.40;;
12334;SDS011;6233;51.560;9.986;2022-12-29T18:21:55;5.47;;;1.80;;
12334;SDS011;6233;51.560;9.986;2022-12-29T18:24:56;4.03;;;2.60;;
12334;SDS011;6233;51.560;9.986;2022-12-29T18:27:58;3.70;;;1.63;;
12334;SDS011;6233;51.560;9.986;2022-12-29T18:31:00;1.40;;;1.30;;
12334;SDS011;6233;51.560;9.986;2022-12-29T18:34:09;4.17;;;1.70;;
12334;SDS011;6233;51.560;9.986;2022-12-29T18:37:14;4.10;;;1.60;;
12334;SDS011;6233;51.560;9.986;2022-12-29T18:40:16;3.67;;;2.07;;
12334;SDS011;6233;51.560;9.986;2022-12-29T18:43:19;4.33;;;1.70;;
12334;SDS011;6233;51.560;9.986;2022-12-29T18:46:22;2.40;;;1.47;;
12334;SDS011;6233;51.560;9.986;2022-12-29T18:49:24;6.03;;;2.13;;
12334;SDS011;6233;51.560;9.986;2022-12-29T18:52:26;3.23;;;1.70;;
12334;SDS011;6233;51.560;9.986;2022-12-29T18:55:27;2.53;;;1.77;;
12334;SDS011;6233;51.560;9.986;2022-12-29T18:58:30;5.83;;;2.60;;
12334;SDS011;6233;51.560;9.986;2022-12-29T19:01:34;4.27;;;1.80;;
12334;SDS011;6233;51.560;9.986;2022-12-29T19:04:36;5.63;;;2.10;;
12334;SDS011;6233;51.560;9.986;2022-12-29T19:07:38;4.10;;;1.80;;
12334;SDS011;6233;51.560;9.986;2022-12-29T19:10:40;3.17;;;1.70;;
12334;SDS011;6233;51.560;9.986;2022-12-29T19:13:42;2.87;;;1.83;;
12334;SDS011;6233;51.560;9.986;2022-12-29T19:16:44;4.50;;;1.90;;
12334;SDS011;6233;51.560;9.986;2022-12-29T19:19:47;5.27;;;2.17;;
12334;SDS011;6233;51.560;9.986;2022-12-29T19:22:48;5.50;;;1.93;;
12334;SDS011;6233;51.560;9.986;2022-12-29T19:25:50;5.53;;;2.10;;
12334;SDS011;6233;51.560;9.986;2022-12-29T19:28:54;4.90;;;2.50;;
12334;SDS011;6233;51.560;9.986;2022-12-29T19:31:56;2.70;;;1.57;;
12334;SDS011;6233;51.560;9.986;2022-12-29T19:34:58;6.13;;;2.67;;
12334;SDS011;6233;51.560;9.986;2022-12-29T19:38:00;5.97;;;1.93;;
12334;SDS011;6233;51.560;9.986;2022-12-29T19:41:05;3.10;;;1.90;;
12334;SDS011;6233;51.560;9.986;2022-12-29T19:44:07;3.50;;;2.17;;
12334;SDS011;6233;51.560;9.986;2022-12-29T19:47:09;2.93;;;1.93;;
12334;SDS011;6233;51.560;9.986;2022-12-29T19:50:11;3.93;;;1.73;;
12334;SDS011;6233;51.560;9.986;2022-12-29T19:53:15;3.73;;;2.00;;
12334;SDS011;6233;51.560;9.986;2022-12-29T19:56:17;4.30;;;2.13;;
12334;SDS011;6233;51.560;9.986;2022-12-29T19:59:19;3.53;;;1.63;;
12334;SDS011;6233;51.560;9.986;2022-12-29T20:02:25;4.00;;;2.43;;
12334;SDS011;6233;51.560;9.986;2022-12-29T20:05:29;4.03;;;1.90;;
12334;SDS011;6233;51.560;9.986;2022-12-29T20:08:31;4.70;;;2.40;;
12334;SDS011;6233;51.560;9.986;2022-12-29T20:11:32;5.33;;;1.77;;
12334;SDS011;6233;51.560;9.986;2022-12-29T20:14:36;4.97;;;1.73;;
12334;SDS011;6233;51.560;9.986;2022-12-29T20:17:40;3.77;;;1.70;;
12334;SDS011;6233;51.560;9.986;2022-12-29T20:21:06;3.37;;;1.37;;
12334;SDS011;6233;51.560;9.986;2022-12-29T20:24:32;3.93;;;1.83;;
12334;SDS011;6233;51.560;9.986;2022-12-29T20:27:38;5.13;;;1.97;;
12334;SDS011;6233;51.560;9.986;2022-12-29T20:30:40;3.37;;;1.77;;
12334;SDS011;6233;51.560;9.986;2022-12-29T20:33:47;5.30;;;2.40;;
12334;SDS011;6233;51.560;9.986;2022-12-29T20:36:50;6.17;;;1.90;;
12334;SDS011;6233;51.560;9.986;2022-12-29T20:39:52;4.03;;;1.80;;
12334;SDS011;6233;51.560;9.986;2022-12-29T20:42:54;3.80;;;2.10;;
12334;SDS011;6233;51.560;9.986;2022-12-29T20:45:55;3.17;;;1.90;;
12334;SDS011;6233;51.560;9.986;2022-12-29T20:48:57;6.43;;;2.07;;
12334;SDS011;6233;51.560;9.986;2022-12-29T20:52:01;5.77;;;2.17;;
12334;SDS011;6233;51.560;9.986;2022-12-29T20:55:07;5.80;;;2.50;;
12334;SDS011;6233;51.560;9.986;2022-12-29T20:58:13;5.80;;;2.17;;
12334;SDS011;6233;51.560;9.986;2022-12-29T21:01:27;5.27;;;2.23;;
12334;SDS011;6233;51.560;9.986;2022-12-29T21:04:29;9.37;;;2.07;;
12334;SDS011;6233;51.560;9.986;2022-12-29T21:07:51;4.83;;;2.40;;
12334;SDS011;6233;51.560;9.986;2022-12-29T21:10:54;4.30;;;2.10;;
12334;SDS011;6233;51.560;9.986;2022-12-29T21:13:57;7.03;;;1.90;;
12334;SDS011;6233;51.560;9.986;2022-12-29T21:17:01;4.63;;;1.73;;
12334;SDS011;6233;51.560;9.986;2022-12-29T21:20:03;7.17;;;2.10;;
12334;SDS011;6233;51.560;9.986;2022-12-29T21:23:06;5.80;;;1.93;;
12334;SDS011;6233;51.560;9.986;2022-12-29T21:26:08;4.53;;;2.00;;
12334;SDS011;6233;51.560;9.986;2022-12-29T21:29:11;5.37;;;2.20;;
12334;SDS011;6233;51.560;9.986;2022-12-29T21:32:13;4.43;;;1.93;;
12334;SDS011;6233;51.560;9.986;2022-12-29T21:35:15;5.17;;;2.10;;
12334;SDS011;6233;51.560;9.986;2022-12-29T21:38:17;6.23;;;2.40;;
12334;SDS011;6233;51.560;9.986;2022-12-29T21:41:19;4.40;;;1.67;;
12334;SDS011;6233;51.560;9.986;2022-12-29T21:44:21;6.23;;;2.23;;